Time;durP1;ratioP1;P1;durP2;ratioP2;P2;SDS_P1;SDS_P2;PMS_P1;PMS_P2;Temp;Humidity;BMP_temperature;BMP_pressure;BME280_temperature;BME280_humidity;BME280_pressure;Samples;Min_cycle;Max_cycle;Signal;HPM_P1;HPM_P2
2022/01/21 00:03:13;;;;;;;2.65;0.50;;;2.10;99.90;;;;;;10305205;28;20045;-61
2022/01/21 00:08:15;;;;;;;4.53;0.80;;;2.20;99.90;;;;;;10305725;28;20136;-61
2022/01/21 00:13:34;;;;;;;6.15;0.45;;;2.10;99.90;;;;;;10301837;28;20497;-61
2022/01/21 00:18:38;;;;;;;4.50;0.38;;;2.10;99.90;;;;;;10306840;28;20054;-61
2022/01/21 00:34:21;;;;;;;4.32;0.52;;;2.10;99.90;;;;;;10296023;28;20070;-62
2022/01/21 00:39:26;;;;;;;1.27;0.30;;;2.10;99.90;;;;;;10301488;28;20089;-62
2022/01/21 00:44:28;;;;;;;5.35;1.80;;;2.00;99.90;;;;;;10307497;28;20493;-62
2022/01/21 00:49:29;;;;;;;5.60;0.30;;;2.00;99.80;;;;;;10303680;28;20435;-62
2022/01/21 00:54:31;;;;;;;6.40;0.55;;;2.00;99.90;;;;;;10302173;28;20043;-61
2022/01/21 00:59:33;;;;;;;1.92;0.25;;;1.90;99.90;;;;;;10302936;28;20385;-62
2022/01/21 01:04:34;;;;;;;4.30;0.40;;;1.90;99.90;;;;;;10306110;28;20571;-62
2022/01/21 01:09:36;;;;;;;5.38;0.40;;;1.90;99.90;;;;;;10298069;28;20086;-61
2022/01/21 01:20:00;;;;;;;5.90;0.60;;;1.80;99.90;;;;;;10307580;28;20497;-61
2022/01/21 01:30:26;;;;;;;1.02;0.40;;;1.60;99.90;;;;;;10298441;28;20093;-61
2022/01/21 01:35:33;;;;;;;4.25;0.60;;;1.60;99.90;;;;;;10299566;28;20520;-62
2022/01/21 01:40:42;;;;;;;5.75;0.47;;;1.60;99.90;;;;;;10297260;28;20505;-62
2022/01/21 01:51:05;;;;;;;2.83;0.50;;;1.50;99.90;;;;;;10302933;28;20051;-62
2022/01/21 01:56:10;;;;;;;2.90;1.30;;;1.40;99.90;;;;;;10299940;28;20077;-62
2022/01/21 02:01:12;;;;;;;6.88;0.40;;;1.40;99.90;;;;;;10297727;28;20108;-62
2022/01/21 02:06:14;;;;;;;0.70;0.43;;;1.40;99.90;;;;;;10299134;28;20085;-62
2022/01/21 02:11:16;;;;;;;8.85;0.80;;;1.40;99.90;;;;;;10299823;28;20529;-61
2022/01/21 02:21:30;;;;;;;4.30;0.95;;;1.40;99.90;;;;;;10300509;28;20074;-62
2022/01/21 02:26:32;;;;;;;7.18;0.90;;;1.40;99.90;;;;;;10301146;28;20062;-62
2022/01/21 02:31:35;;;;;;;4.80;1.42;;;1.40;99.90;;;;;;10305017;28;20074;-62
2022/01/21 02:36:37;;;;;;;12.00;0.77;;;1.40;99.90;;;;;;10298802;28;20748;-63
2022/01/21 02:41:39;;;;;;;8.38;0.80;;;1.50;99.90;;;;;;10302692;28;20050;-62
2022/01/21 02:46:43;;;;;;;6.85;1.30;;;1.50;99.90;;;;;;10302634;28;20054;-61
2022/01/21 02:51:45;;;;;;;8.15;0.70;;;1.50;99.90;;;;;;10299460;28;20050;-61
2022/01/21 02:56:47;;;;;;;6.32;0.70;;;1.60;99.90;;;;;;10299507;28;20082;-62
2022/01/21 03:01:49;;;;;;;3.38;0.70;;;1.70;99.90;;;;;;10295057;28;20046;-62
2022/01/21 03:06:51;;;;;;;7.97;0.80;;;1.70;99.90;;;;;;10305895;28;20046;-61
2022/01/21 03:11:53;;;;;;;5.10;0.70;;;1.80;99.90;;;;;;10303009;28;20069;-62
2022/01/21 03:16:56;;;;;;;5.00;0.80;;;1.80;99.90;;;;;;10306276;28;20148;-61
2022/01/21 03:21:58;;;;;;;7.20;1.02;;;1.90;99.90;;;;;;10307084;28;20054;-61
2022/01/21 03:26:59;;;;;;;2.08;0.70;;;1.80;99.90;;;;;;10302900;28;20081;-61
2022/01/21 03:32:01;;;;;;;7.85;1.15;;;1.80;99.90;;;;;;10302989;28;20128;-62
2022/01/21 03:37:04;;;;;;;4.78;0.77;;;1.70;99.90;;;;;;10310114;28;20141;-61
2022/01/21 03:42:06;;;;;;;5.10;0.85;;;1.60;99.90;;;;;;10307078;28;20785;-61
2022/01/21 03:47:08;;;;;;;5.20;1.23;;;1.60;99.90;;;;;;10304524;28;22020;-62
2022/01/21 03:52:09;;;;;;;4.47;1.45;;;1.60;99.90;;;;;;10305208;28;20175;-61
2022/01/21 03:57:11;;;;;;;1.42;0.77;;;1.60;99.90;;;;;;10303388;28;20042;-62
2022/01/21 04:02:13;;;;;;;8.05;1.58;;;1.70;99.90;;;;;;10304152;28;20054;-61
2022/01/21 04:07:15;;;;;;;6.65;1.00;;;1.80;99.90;;;;;;10305252;28;20052;-61
2022/01/21 04:12:17;;;;;;;4.53;1.00;;;1.80;99.90;;;;;;10302036;28;20495;-62
2022/01/21 04:17:18;;;;;;;7.45;1.40;;;1.80;99.90;;;;;;10301059;28;20628;-62
2022/01/21 04:22:20;;;;;;;7.53;1.20;;;1.80;99.90;;;;;;10297951;28;20054;-62
2022/01/21 04:27:22;;;;;;;6.78;1.30;;;1.70;99.90;;;;;;10308809;28;22160;-62
2022/01/21 04:32:24;;;;;;;7.85;1.98;;;1.70;99.90;;;;;;10302559;28;20081;-62
2022/01/21 04:37:26;;;;;;;4.45;1.00;;;1.70;99.90;;;;;;10301849;28;20081;-62
2022/01/21 04:47:48;;;;;;;8.27;0.93;;;1.60;99.90;;;;;;10303710;28;20489;-62
2022/01/21 04:52:50;;;;;;;5.30;0.82;;;1.50;99.90;;;;;;10296061;28;20451;-61
2022/01/21 04:57:51;;;;;;;10.73;1.50;;;1.50;99.90;;;;;;10305590;28;20042;-62
2022/01/21 05:02:53;;;;;;;7.13;1.33;;;1.40;99.90;;;;;;10300946;28;20460;-62
2022/01/21 05:07:58;;;;;;;9.45;1.95;;;1.40;99.90;;;;;;10307257;28;20038;-61
2022/01/21 05:13:05;;;;;;;8.43;1.75;;;1.40;99.90;;;;;;10296336;28;20505;-61
2022/01/21 05:18:06;;;;;;;6.00;1.10;;;1.30;99.90;;;;;;10304911;28;20050;-61
2022/01/21 05:23:08;;;;;;;7.07;1.52;;;1.40;99.90;;;;;;10298525;28;20055;-61
2022/01/21 05:28:10;;;;;;;7.65;1.73;;;1.50;99.90;;;;;;10308761;28;21134;-61
2022/01/21 05:33:11;;;;;;;7.97;1.35;;;1.50;99.90;;;;;;10299669;28;20141;-61
2022/01/21 05:38:13;;;;;;;5.45;1.58;;;1.50;99.90;;;;;;10302298;28;20128;-61
2022/01/21 05:43:15;;;;;;;3.58;1.25;;;1.60;99.90;;;;;;10303284;28;20046;-61
2022/01/21 05:48:16;;;;;;;10.95;2.00;;;1.50;99.90;;;;;;10303862;28;20436;-61
2022/01/21 05:53:18;;;;;;;4.75;1.33;;;1.50;99.90;;;;;;10300606;28;20050;-61
2022/01/21 05:58:20;;;;;;;6.55;1.65;;;1.70;99.90;;;;;;10302935;28;20062;-61
2022/01/21 06:03:21;;;;;;;6.75;1.30;;;1.80;99.90;;;;;;10296238;28;20078;-62
2022/01/21 06:08:25;;;;;;;3.83;1.05;;;1.80;99.90;;;;;;10295876;28;20074;-61
2022/01/21 06:13:27;;;;;;;10.40;1.55;;;1.80;99.90;;;;;;10295850;28;20153;-61
2022/01/21 06:18:29;;;;;;;5.68;1.63;;;1.90;99.90;;;;;;10303276;28;20096;-61
2022/01/21 06:23:30;;;;;;;4.30;1.30;;;2.00;99.90;;;;;;10298956;28;20054;-61
2022/01/21 06:28:32;;;;;;;8.85;2.55;;;2.00;99.90;;;;;;10299734;28;20074;-61
2022/01/21 06:33:34;;;;;;;6.60;1.38;;;2.10;99.90;;;;;;10300031;28;20085;-62
2022/01/21 06:38:35;;;;;;;5.97;1.23;;;2.10;99.90;;;;;;10298682;28;20116;-61
2022/01/21 06:43:38;;;;;;;8.55;1.70;;;2.10;99.90;;;;;;10304458;28;20105;-62
2022/01/21 06:48:39;;;;;;;6.00;1.77;;;2.10;99.90;;;;;;10311585;28;20062;-62
2022/01/21 06:53:42;;;;;;;2.47;1.52;;;2.10;99.90;;;;;;10313396;28;20057;-62
2022/01/21 06:58:45;;;;;;;8.05;1.75;;;2.20;99.90;;;;;;10303779;28;20054;-62
2022/01/21 07:03:46;;;;;;;10.38;2.10;;;2.10;99.90;;;;;;10302387;28;20346;-62
2022/01/21 07:08:48;;;;;;;6.07;1.55;;;2.10;99.90;;;;;;10305998;28;20046;-62
2022/01/21 07:13:50;;;;;;;7.50;2.08;;;2.10;99.90;;;;;;10306890;28;20047;-61
2022/01/21 07:18:51;;;;;;;6.03;1.65;;;2.10;99.90;;;;;;10303663;28;20116;-61
2022/01/21 07:23:53;;;;;;;7.38;1.67;;;2.20;99.90;;;;;;10302988;28;20097;-61
2022/01/21 07:28:55;;;;;;;7.00;1.83;;;2.20;99.90;;;;;;10306460;28;20054;-61
2022/01/21 07:33:58;;;;;;;5.82;1.95;;;2.30;99.90;;;;;;10305270;28;20277;-65
2022/01/21 07:39:01;;;;;;;8.15;2.13;;;2.30;99.90;;;;;;10307693;28;20042;-65
2022/01/21 07:44:03;;;;;;;6.85;1.60;;;2.30;99.90;;;;;;10304948;28;20054;-63
2022/01/21 07:49:04;;;;;;;6.35;1.67;;;2.30;99.90;;;;;;10306995;28;20140;-63
2022/01/21 07:54:06;;;;;;;4.13;1.48;;;2.30;99.90;;;;;;10300850;28;20560;-63
2022/01/21 07:59:11;;;;;;;7.78;2.10;;;2.30;99.90;;;;;;10306963;28;20421;-62
2022/01/21 08:04:13;;;;;;;8.05;2.50;;;2.30;99.90;;;;;;10308057;28;20135;-62
2022/01/21 08:09:15;;;;;;;12.82;2.85;;;2.30;99.90;;;;;;10318061;28;20046;-61
2022/01/21 08:14:17;;;;;;;12.73;2.95;;;2.20;99.90;;;;;;10303040;28;20068;-62
2022/01/21 08:19:19;;;;;;;12.30;3.03;;;2.20;99.90;;;;;;10310605;28;20057;-61
2022/01/21 08:24:21;;;;;;;8.27;2.22;;;2.20;99.90;;;;;;10299849;28;20054;-61
2022/01/21 08:29:22;;;;;;;12.75;3.72;;;2.10;99.90;;;;;;10306317;28;20053;-62
2022/01/21 08:34:24;;;;;;;6.10;2.67;;;2.20;99.90;;;;;;10301326;28;20070;-61
2022/01/21 08:39:26;;;;;;;11.40;3.25;;;2.20;99.90;;;;;;10301097;28;20086;-61
2022/01/21 08:44:27;;;;;;;6.70;2.42;;;2.30;99.90;;;;;;10303893;28;20113;-61
2022/01/21 08:49:29;;;;;;;11.43;3.17;;;2.50;99.90;;;;;;10296353;28;20579;-61
2022/01/21 08:54:31;;;;;;;5.63;2.25;;;2.60;99.90;;;;;;10307555;28;20050;-61
2022/01/21 08:59:32;;;;;;;6.35;2.13;;;2.70;99.90;;;;;;10303453;28;20058;-61
2022/01/21 09:04:34;;;;;;;6.85;1.80;;;2.90;99.90;;;;;;10299651;28;20429;-62
2022/01/21 09:09:36;;;;;;;7.85;2.40;;;3.00;99.90;;;;;;10303014;28;20043;-61
2022/01/21 09:14:37;;;;;;;7.55;2.10;;;3.00;99.90;;;;;;10302381;28;20065;-61
2022/01/21 09:19:39;;;;;;;11.52;2.83;;;3.10;99.90;;;;;;10301682;28;20050;-61
2022/01/21 09:24:41;;;;;;;10.32;2.28;;;3.10;99.90;;;;;;10303832;28;20108;-61
2022/01/21 09:29:42;;;;;;;7.85;1.95;;;3.20;99.90;;;;;;10300200;28;20468;-61
2022/01/21 09:34:44;;;;;;;5.55;2.13;;;3.20;99.90;;;;;;10299736;28;20066;-61
2022/01/21 09:39:46;;;;;;;6.50;1.85;;;3.20;99.90;;;;;;10306238;28;20587;-61
2022/01/21 09:44:48;;;;;;;9.55;2.25;;;3.20;99.90;;;;;;10299478;28;20073;-62
2022/01/21 09:49:51;;;;;;;6.95;2.45;;;3.30;99.90;;;;;;10303859;28;20105;-61
2022/01/21 09:54:53;;;;;;;10.07;2.88;;;3.30;99.90;;;;;;10302994;28;20111;-62
2022/01/21 09:59:55;;;;;;;8.35;2.33;;;3.30;99.90;;;;;;10304026;28;20124;-61
2022/01/21 10:04:59;;;;;;;9.10;2.38;;;3.30;99.90;;;;;;10300179;28;20105;-61
2022/01/21 10:10:07;;;;;;;7.80;2.33;;;3.40;99.90;;;;;;10298331;28;20046;-61
2022/01/21 10:15:22;;;;;;;7.22;2.58;;;3.40;99.90;;;;;;10297697;28;20050;-61
2022/01/21 10:20:24;;;;;;;5.40;2.47;;;3.40;99.90;;;;;;10295970;28;20058;-62
2022/01/21 10:25:26;;;;;;;6.10;3.08;;;3.50;99.90;;;;;;10296287;28;20116;-61
2022/01/21 10:30:28;;;;;;;11.27;2.35;;;3.50;99.90;;;;;;10296223;28;20102;-61
2022/01/21 10:35:35;;;;;;;7.50;2.65;;;3.70;99.90;;;;;;10298269;28;20050;-62
2022/01/21 10:40:37;;;;;;;4.50;1.90;;;3.80;99.90;;;;;;10302846;28;20050;-61
2022/01/21 10:45:54;;;;;;;3.70;1.58;;;3.90;97.90;;;;;;10296084;28;20132;-61
2022/01/21 10:51:19;;;;;;;9.25;1.42;;;3.90;98.30;;;;;;10300978;28;20057;-61
2022/01/21 10:56:23;;;;;;;2.40;1.40;;;3.90;97.10;;;;;;10300150;28;20453;-62
2022/01/21 11:01:28;;;;;;;4.18;2.13;;;4.00;96.80;;;;;;10298926;28;20050;-61
2022/01/21 11:06:45;;;;;;;6.55;1.42;;;4.10;95.00;;;;;;10299868;28;20046;-61
2022/01/21 11:11:49;;;;;;;3.63;1.17;;;4.00;94.70;;;;;;10294843;28;20519;-61
2022/01/21 11:16:51;;;;;;;4.18;1.42;;;4.00;96.10;;;;;;10296984;28;20569;-61
2022/01/21 11:22:12;;;;;;;8.05;1.95;;;4.00;95.70;;;;;;10293624;28;20054;-62
2022/01/21 11:27:16;;;;;;;6.30;1.90;;;4.20;94.40;;;;;;10297499;28;20105;-62
2022/01/21 11:32:18;;;;;;;6.32;1.75;;;4.30;95.20;;;;;;10306147;28;20105;-61
2022/01/21 11:37:20;;;;;;;2.88;1.27;;;4.40;94.70;;;;;;10303763;28;20145;-61
2022/01/21 11:42:22;;;;;;;9.25;1.48;;;4.50;94.20;;;;;;10304491;28;20105;-61
2022/01/21 11:47:48;;;;;;;3.42;1.20;;;4.40;92.20;;;;;;10299575;28;20073;-61
2022/01/21 11:52:50;;;;;;;7.50;1.20;;;4.40;92.10;;;;;;10307843;28;20055;-61
2022/01/21 11:58:10;;;;;;;4.63;1.67;;;4.30;92.00;;;;;;10305022;28;20108;-60
2022/01/21 12:03:12;;;;;;;4.75;1.10;;;4.20;92.40;;;;;;10307736;28;20568;-61
2022/01/21 12:08:13;;;;;;;6.55;1.30;;;4.30;92.40;;;;;;10307636;28;20490;-62
2022/01/21 12:13:25;;;;;;;7.60;1.67;;;4.40;92.10;;;;;;10298937;28;20053;-61
2022/01/21 12:19:18;;;;;;;6.60;1.45;;;4.50;91.40;;;;;;10302424;28;20140;-61
2022/01/21 12:24:44;;;;;;;4.07;1.23;;;4.60;90.60;;;;;;10300020;28;20064;-62
2022/01/21 12:29:46;;;;;;;2.20;0.80;;;4.80;91.00;;;;;;10301909;28;20153;-62
2022/01/21 12:35:00;;;;;;;6.10;1.65;;;4.70;90.70;;;;;;10301366;28;20101;-61
2022/01/21 12:40:02;;;;;;;5.88;1.25;;;4.80;90.40;;;;;;10306466;28;20054;-61
2022/01/21 12:45:07;;;;;;;10.57;2.03;;;4.80;90.50;;;;;;10296551;28;20101;-62
2022/01/21 12:50:38;;;;;;;4.30;1.30;;;4.90;91.00;;;;;;10302779;28;20078;-59
2022/01/21 12:55:55;;;;;;;2.63;1.02;;;4.90;90.70;;;;;;10300056;28;20078;-61
2022/01/21 13:00:59;;;;;;;3.78;1.05;;;4.80;90.90;;;;;;10307273;28;20051;-62
2022/01/21 13:06:03;;;;;;;6.60;1.35;;;4.70;90.80;;;;;;10299472;28;21134;-62
2022/01/21 13:11:16;;;;;;;5.50;1.30;;;4.90;90.90;;;;;;10302928;28;20054;-61
2022/01/21 13:16:25;;;;;;;7.00;1.42;;;5.10;90.70;;;;;;10306010;28;20109;-61
2022/01/21 13:21:27;;;;;;;9.88;1.75;;;5.20;90.70;;;;;;10303104;28;20100;-61
2022/01/21 13:26:39;;;;;;;5.40;1.10;;;5.20;90.40;;;;;;10304728;28;20532;-61
2022/01/21 13:31:47;;;;;;;6.22;1.13;;;5.30;90.30;;;;;;10303833;28;20042;-61
2022/01/21 13:36:53;;;;;;;4.03;1.90;;;5.30;91.00;;;;;;10295044;28;20485;-61
2022/01/21 13:42:10;;;;;;;4.60;1.27;;;5.30;91.10;;;;;;10298705;28;20042;-61
2022/01/21 13:47:36;;;;;;;6.90;1.77;;;5.20;90.50;;;;;;10300642;28;20076;-61
2022/01/21 13:52:43;;;;;;;6.88;1.83;;;5.20;91.40;;;;;;10300134;28;20469;-60
2022/01/21 13:57:45;;;;;;;;;;;5.20;91.30;;;;;;10296209;28;20050;-59
2022/01/21 14:03:00;;;;;;;5.95;1.77;;;5.20;91.50;;;;;;10299882;28;20426;-60
2022/01/21 14:08:10;;;;;;;5.93;1.13;;;5.30;91.90;;;;;;10297984;28;20125;-59
2022/01/21 14:13:12;;;;;;;3.05;0.95;;;5.40;91.80;;;;;;10295209;28;20445;-59
2022/01/21 14:18:14;;;;;;;4.70;1.15;;;5.40;91.30;;;;;;10301748;28;20457;-58
2022/01/21 14:23:26;;;;;;;3.85;0.98;;;5.40;91.10;;;;;;10301141;28;20051;-60
2022/01/21 14:28:48;;;;;;;4.10;1.27;;;5.30;91.00;;;;;;10298695;28;20433;-62
2022/01/21 14:33:49;;;;;;;3.75;1.30;;;5.30;91.00;;;;;;10296387;28;20053;-62
2022/01/21 14:39:06;;;;;;;4.35;0.90;;;5.20;91.90;;;;;;10301614;28;20077;-63
2022/01/21 14:44:11;;;;;;;3.00;0.88;;;5.20;91.70;;;;;;10303165;28;20046;-62
2022/01/21 14:49:13;;;;;;;2.95;1.38;;;5.10;92.10;;;;;;10300333;28;20517;-62
2022/01/21 14:54:20;;;;;;;5.50;1.90;;;5.00;92.20;;;;;;10296510;28;20413;-61
2022/01/21 14:59:21;;;;;;;5.90;1.50;;;5.00;93.40;;;;;;10298373;28;20055;-61
2022/01/21 15:04:23;;;;;;;8.77;1.88;;;4.90;94.30;;;;;;10302816;28;20104;-62
2022/01/21 15:09:29;;;;;;;7.55;1.40;;;4.80;95.30;;;;;;10306707;28;20050;-61
2022/01/21 15:14:45;;;;;;;4.40;1.83;;;4.80;96.50;;;;;;10307970;28;20124;-61
2022/01/21 15:19:49;;;;;;;5.88;2.00;;;4.70;96.90;;;;;;10309389;28;20105;-62
2022/01/21 15:24:56;;;;;;;6.25;2.28;;;4.70;98.20;;;;;;10310242;28;20042;-61
2022/01/21 15:29:57;;;;;;;12.40;1.93;;;4.70;97.70;;;;;;10308477;28;20066;-61
2022/01/21 15:34:59;;;;;;;5.70;2.10;;;4.70;97.70;;;;;;10303529;28;20093;-61
2022/01/21 15:40:02;;;;;;;4.47;1.67;;;4.60;98.30;;;;;;10307606;28;20116;-61
2022/01/21 15:45:04;;;;;;;14.07;2.72;;;4.60;99.30;;;;;;10302927;28;20053;-61
2022/01/21 15:50:09;;;;;;;9.93;2.50;;;4.60;99.90;;;;;;10312214;28;20105;-61
2022/01/21 15:55:11;;;;;;;11.70;3.58;;;4.60;99.90;;;;;;10304836;28;20053;-61
2022/01/21 16:00:13;;;;;;;16.45;4.22;;;4.60;99.90;;;;;;10306245;28;20046;-61
2022/01/21 16:05:16;;;;;;;6.93;2.90;;;4.60;99.90;;;;;;10304270;28;20429;-61
2022/01/21 16:16:33;;;;;;;4.35;1.98;;;4.60;99.90;;;;;;10304051;28;20078;-61
2022/01/21 16:21:41;;;;;;;6.38;2.38;;;4.60;99.90;;;;;;10305911;28;20034;-61
2022/01/21 16:26:44;;;;;;;8.02;3.38;;;4.60;99.90;;;;;;10306977;28;20129;-61
2022/01/21 16:31:47;;;;;;;10.90;2.50;;;4.50;99.90;;;;;;10305084;28;20042;-61
2022/01/21 16:36:49;;;;;;;5.60;2.30;;;4.50;99.90;;;;;;10302547;28;20050;-60
2022/01/21 16:41:50;;;;;;;7.68;2.45;;;4.50;99.90;;;;;;10301779;28;20509;-60
2022/01/21 16:46:53;;;;;;;13.40;3.08;;;4.50;99.90;;;;;;10303198;28;20050;-61
2022/01/21 16:51:58;;;;;;;6.85;2.90;;;4.50;99.90;;;;;;10300981;28;20389;-63
2022/01/21 16:56:59;;;;;;;9.77;3.53;;;4.40;99.90;;;;;;10300367;28;20042;-60
2022/01/21 17:02:01;;;;;;;9.50;3.53;;;4.40;99.90;;;;;;10293953;28;20050;-61
2022/01/21 17:07:04;;;;;;;10.50;3.67;;;4.30;99.90;;;;;;10308438;28;20143;-60
2022/01/21 17:12:06;;;;;;;7.95;2.80;;;4.30;99.90;;;;;;10302403;28;20477;-61
2022/01/21 17:17:08;;;;;;;5.40;2.55;;;4.30;99.90;;;;;;10302590;28;20042;-60
2022/01/21 17:22:10;;;;;;;6.03;2.58;;;4.20;99.90;;;;;;10304174;28;20046;-60
2022/01/21 17:27:13;;;;;;;9.05;2.65;;;4.10;99.90;;;;;;10298008;28;20473;-59
2022/01/21 17:32:15;;;;;;;7.60;2.33;;;4.10;99.90;;;;;;10302190;28;20041;-60
2022/01/21 17:37:17;;;;;;;6.95;2.10;;;4.10;99.90;;;;;;10297660;28;20493;-61
2022/01/21 17:42:19;;;;;;;7.75;2.38;;;4.10;99.90;;;;;;10298345;28;20046;-60
2022/01/21 17:47:22;;;;;;;4.70;2.00;;;4.10;99.90;;;;;;10287122;28;20370;-60
2022/01/21 17:52:24;;;;;;;7.15;3.03;;;4.10;99.90;;;;;;10298120;28;20519;-60
2022/01/21 17:57:26;;;;;;;13.82;4.47;;;4.10;99.90;;;;;;10294814;28;20054;-60
2022/01/21 18:02:27;;;;;;;10.63;2.92;;;4.20;99.90;;;;;;10303298;28;20462;-62
2022/01/21 18:07:30;;;;;;;7.45;2.42;;;4.10;99.90;;;;;;10294330;28;20706;-60
2022/01/21 18:12:31;;;;;;;7.07;1.98;;;4.20;99.90;;;;;;10280712;28;20157;-60
2022/01/21 18:17:34;;;;;;;6.35;2.28;;;4.20;99.90;;;;;;10300457;28;20133;-60
2022/01/21 18:22:36;;;;;;;6.82;2.22;;;4.20;99.90;;;;;;10294168;28;20070;-61
2022/01/21 18:27:39;;;;;;;7.20;2.28;;;4.20;99.90;;;;;;10303859;28;20505;-61
2022/01/21 18:32:40;;;;;;;4.32;1.85;;;4.10;99.90;;;;;;10298438;28;20062;-61
2022/01/21 18:37:43;;;;;;;4.32;1.40;;;4.20;99.90;;;;;;10299897;28;20054;-61
2022/01/21 18:42:48;;;;;;;3.97;1.73;;;4.10;99.90;;;;;;10321948;28;20050;-61
2022/01/21 18:47:50;;;;;;;2.13;1.35;;;4.10;99.90;;;;;;10304452;28;20086;-59
2022/01/21 18:53:08;;;;;;;6.32;2.03;;;4.00;99.90;;;;;;10310890;28;20061;-61
2022/01/21 18:58:10;;;;;;;3.15;1.35;;;4.00;99.90;;;;;;10308161;28;20397;-61
2022/01/21 19:03:13;;;;;;;4.72;1.30;;;4.00;99.90;;;;;;10306524;28;20046;-61
2022/01/21 19:08:15;;;;;;;5.00;1.40;;;4.00;99.90;;;;;;10303805;28;20065;-60
2022/01/21 19:13:17;;;;;;;7.28;1.40;;;4.00;99.90;;;;;;10302807;28;20415;-60
2022/01/21 19:18:20;;;;;;;7.82;1.63;;;4.00;99.90;;;;;;10305271;28;20082;-60
2022/01/21 19:23:28;;;;;;;8.40;1.92;;;4.00;99.90;;;;;;10302740;28;20046;-60
2022/01/21 19:28:33;;;;;;;3.80;1.45;;;4.10;99.90;;;;;;10311060;28;20042;-61
2022/01/21 19:33:35;;;;;;;5.00;1.55;;;4.10;99.90;;;;;;10304873;28;20054;-60
2022/01/21 19:38:36;;;;;;;3.80;1.75;;;4.10;99.90;;;;;;10300028;28;20053;-60
2022/01/21 19:43:38;;;;;;;6.72;1.90;;;4.20;99.90;;;;;;10299545;28;20046;-60
2022/01/21 19:48:46;;;;;;;3.78;1.83;;;4.20;99.90;;;;;;10299563;28;20108;-60
2022/01/21 19:53:47;;;;;;;3.92;1.73;;;4.30;99.90;;;;;;10298854;28;20061;-60
2022/01/21 19:59:17;;;;;;;6.50;2.03;;;4.30;99.90;;;;;;10296698;28;20046;-61
2022/01/21 20:09:34;;;;;;;5.00;2.13;;;4.40;99.90;;;;;;10305834;28;20058;-59
2022/01/21 20:14:47;;;;;;;8.25;2.80;;;4.40;99.90;;;;;;10304812;28;20054;-62
2022/01/21 20:19:51;;;;;;;5.32;2.15;;;4.50;99.90;;;;;;10312780;28;20054;-59
2022/01/21 20:24:54;;;;;;;5.25;2.25;;;4.50;99.90;;;;;;10298171;28;20049;-59
2022/01/21 20:29:57;;;;;;;5.15;3.03;;;4.50;99.90;;;;;;10301893;28;20088;-60
2022/01/21 20:35:02;;;;;;;6.55;2.63;;;4.50;99.90;;;;;;10301403;28;20390;-59
2022/01/21 20:40:27;;;;;;;7.80;2.88;;;4.50;99.90;;;;;;10298389;28;20149;-59
2022/01/21 20:45:28;;;;;;;9.70;3.55;;;4.50;99.90;;;;;;10298850;28;20489;-60
2022/01/21 20:50:30;;;;;;;9.32;3.63;;;4.50;99.90;;;;;;10303483;28;20096;-59
2022/01/21 20:55:32;;;;;;;10.02;3.92;;;4.50;99.90;;;;;;10299518;28;20046;-60
2022/01/21 21:00:35;;;;;;;12.50;4.03;;;4.50;99.90;;;;;;10299095;28;20100;-61
2022/01/21 21:05:37;;;;;;;9.68;3.92;;;4.50;99.90;;;;;;10298004;28;20061;-59
2022/01/21 21:10:39;;;;;;;12.10;4.80;;;4.60;99.90;;;;;;10302657;28;20070;-61
2022/01/21 21:15:41;;;;;;;9.10;4.72;;;4.60;99.90;;;;;;10300452;28;20097;-61
2022/01/21 21:31:51;;;;;;;11.95;4.72;;;4.70;99.90;;;;;;10286816;28;20047;-61
2022/01/21 22:51:34;;;;;;;8.48;4.50;;;5.20;99.90;;;;;;10296628;28;20051;-59
2022/01/21 23:01:59;;;;;;;5.45;2.67;;;5.30;99.90;;;;;;10293443;28;20057;-60
2022/01/21 23:07:02;;;;;;;5.78;3.25;;;5.30;99.90;;;;;;10293950;28;20053;-60
2022/01/21 23:12:04;;;;;;;8.35;2.60;;;5.40;99.90;;;;;;10299220;28;20058;-60
2022/01/21 23:17:06;;;;;;;6.38;3.25;;;5.40;99.90;;;;;;10293200;28;20054;-60
2022/01/21 23:22:08;;;;;;;11.32;3.67;;;5.40;99.90;;;;;;10301336;28;20074;-61
2022/01/21 23:27:21;;;;;;;3.88;2.20;;;5.40;99.90;;;;;;10302742;28;20058;-60
2022/01/21 23:32:25;;;;;;;3.08;2.20;;;5.30;99.90;;;;;;10302546;28;20054;-60
2022/01/21 23:37:33;;;;;;;8.30;3.85;;;5.40;99.90;;;;;;10306705;28;20054;-60
2022/01/21 23:42:35;;;;;;;4.45;2.80;;;5.30;99.90;;;;;;10302654;28;20070;-60
2022/01/21 23:47:37;;;;;;;4.65;2.78;;;5.30;99.90;;;;;;10303259;28;20390;-61
2022/01/21 23:52:39;;;;;;;8.43;2.85;;;5.30;99.90;;;;;;10300690;28;20526;-60
2022/01/21 23:57:41;;;;;;;4.38;2.40;;;5.30;99.90;;;;;;10304406;28;20058;-61
